createdAt,value
2019-03-24T00:01:59.630Z,13.87
2019-03-24T00:04:43.252Z,13.43
2019-03-24T00:07:33.514Z,13.23
2019-03-24T00:10:17.446Z,12.80
2019-03-24T00:13:00.176Z,13.40
2019-03-24T00:16:01.670Z,13.67
2019-03-24T00:18:48.306Z,12.63
2019-03-24T00:21:31.412Z,12.87
2019-03-24T00:24:21.701Z,12.23
2019-03-24T00:27:12.142Z,13.77
2019-03-24T00:30:02.458Z,13.23
2019-03-24T00:32:48.675Z,12.23
2019-03-24T00:35:38.927Z,13.33
2019-03-24T00:38:21.496Z,13.73
2019-03-24T00:41:11.779Z,14.20
2019-03-24T00:43:55.155Z,14.53
2019-03-24T00:46:45.441Z,14.63
2019-03-24T00:49:28.033Z,14.53
2019-03-24T00:52:18.284Z,14.30
2019-03-24T00:55:01.496Z,14.73
2019-03-24T00:57:51.797Z,14.00
2019-03-24T01:01:04.270Z,13.47
2019-03-24T01:03:47.495Z,14.30
2019-03-24T01:06:29.789Z,15.00
2019-03-24T01:09:12.048Z,15.57
2019-03-24T01:12:02.381Z,14.47
2019-03-24T01:18:06.405Z,13.23
2019-03-24T01:20:48.827Z,14.30
2019-03-24T01:23:32.271Z,14.03
2019-03-24T01:26:33.705Z,13.60
2019-03-24T01:29:16.179Z,13.93
2019-03-24T01:32:06.433Z,13.10
2019-03-24T01:34:49.153Z,14.67
2019-03-24T01:37:39.441Z,13.43
2019-03-24T01:40:23.455Z,13.70
2019-03-24T01:46:10.475Z,13.50
2019-03-24T01:49:00.803Z,14.93
2019-03-24T01:51:51.187Z,13.50
2019-03-24T01:54:41.509Z,14.30
2019-03-24T02:00:26.872Z,14.77
2019-03-24T02:03:17.124Z,13.53
2019-03-24T02:06:00.549Z,14.60
2019-03-24T02:08:50.860Z,14.50
2019-03-24T02:11:41.234Z,15.63
2019-03-24T02:14:31.534Z,14.67
2019-03-24T02:17:21.811Z,14.83
2019-03-24T02:20:12.163Z,15.63
2019-03-24T02:22:54.663Z,15.47
2019-03-24T02:25:42.077Z,15.43
2019-03-24T02:28:25.083Z,16.17
2019-03-24T02:31:15.398Z,16.37
2019-03-24T02:37:08.866Z,15.90
2019-03-24T02:39:51.610Z,14.50
2019-03-24T02:42:41.979Z,13.33
2019-03-24T02:45:32.259Z,14.33
2019-03-24T02:48:22.532Z,14.80
2019-03-24T02:51:12.875Z,14.00
2019-03-24T02:54:03.318Z,13.63
2019-03-24T02:56:53.655Z,13.73
2019-03-24T02:59:43.936Z,14.60
2019-03-24T03:02:34.204Z,13.77
2019-03-24T03:08:39.750Z,13.87
2019-03-24T03:11:30.020Z,15.77
2019-03-24T03:14:15.401Z,16.77
2019-03-24T03:17:05.750Z,16.53
2019-03-24T03:19:48.642Z,16.63
2019-03-24T03:22:38.953Z,17.40
2019-03-24T03:25:21.971Z,16.07
2019-03-24T03:28:23.748Z,15.50
2019-03-24T03:31:06.225Z,16.17
2019-03-24T03:33:56.548Z,14.43
2019-03-24T03:36:46.844Z,14.87
2019-03-24T03:39:37.167Z,15.47
2019-03-24T03:42:20.188Z,16.53
2019-03-24T03:45:11.059Z,16.30
2019-03-24T03:48:01.309Z,16.77
2019-03-24T03:50:48.333Z,16.07
2019-03-24T03:53:38.651Z,16.27
2019-03-24T03:56:21.328Z,15.80
2019-03-24T03:59:22.925Z,15.37
2019-03-24T04:02:07.221Z,17.90
2019-03-24T04:04:57.471Z,17.27
2019-03-24T04:07:41.338Z,18.00
2019-03-24T04:10:31.601Z,18.10
2019-03-24T04:13:14.277Z,18.53
2019-03-24T04:16:04.511Z,18.13
2019-03-24T04:18:49.143Z,17.27
2019-03-24T04:21:39.379Z,17.37
2019-03-24T04:24:23.066Z,16.93
2019-03-24T04:27:13.349Z,16.77
2019-03-24T04:29:55.959Z,15.70
2019-03-24T04:32:46.240Z,16.63
2019-03-24T04:35:30.263Z,17.47
2019-03-24T04:38:20.580Z,17.03
2019-03-24T04:41:04.920Z,16.93
2019-03-24T04:43:47.687Z,16.70
2019-03-24T04:46:38.043Z,16.63
2019-03-24T04:49:28.381Z,17.07
2019-03-24T04:52:18.725Z,16.33
2019-03-24T04:58:22.987Z,17.27
2019-03-24T05:01:13.357Z,16.37
2019-03-24T05:04:03.856Z,16.47
2019-03-24T05:06:35.324Z,16.87
2019-03-24T05:12:41.214Z,16.43
2019-03-24T05:15:31.462Z,17.40
2019-03-24T05:18:21.751Z,17.07
2019-03-24T05:21:08.407Z,16.57
2019-03-24T05:23:51.495Z,16.33
2019-03-24T05:26:41.949Z,16.10
2019-03-24T05:29:25.807Z,14.70
2019-03-24T05:32:16.042Z,16.87
2019-03-24T05:35:06.530Z,16.33
2019-03-24T05:37:56.836Z,17.83
2019-03-24T05:40:40.634Z,16.13
2019-03-24T05:43:30.918Z,17.13
2019-03-24T05:46:17.429Z,16.20
2019-03-24T05:49:07.680Z,16.77
2019-03-24T05:51:50.775Z,17.00
2019-03-24T05:54:41.034Z,16.63
2019-03-24T05:57:24.170Z,16.83
2019-03-24T06:00:14.556Z,16.97
2019-03-24T06:02:57.740Z,17.13
2019-03-24T06:05:48.020Z,17.47
2019-03-24T06:08:30.849Z,17.20
2019-03-24T06:11:21.112Z,17.30
2019-03-24T06:14:04.271Z,15.13
2019-03-24T06:16:54.563Z,15.40
2019-03-24T06:19:37.650Z,15.17
2019-03-24T06:22:27.930Z,15.23
2019-03-24T06:25:10.307Z,14.23
2019-03-24T06:28:00.568Z,14.63
2019-03-24T06:30:43.490Z,14.23
2019-03-24T06:33:33.728Z,14.43
2019-03-24T06:36:16.044Z,14.43
2019-03-24T06:39:07.948Z,13.67
2019-03-24T06:41:50.243Z,14.43
2019-03-24T06:47:42.400Z,14.93
2019-03-24T06:50:33.071Z,14.83
2019-03-24T06:53:15.420Z,15.00
2019-03-24T06:56:05.677Z,15.37
2019-03-24T06:58:47.937Z,14.87
2019-03-24T07:01:38.211Z,14.63
2019-03-24T07:04:21.457Z,15.23
2019-03-24T07:07:11.701Z,14.87
2019-03-24T07:09:54.009Z,14.60
2019-03-24T07:12:37.820Z,14.90
2019-03-24T07:15:41.284Z,13.93
2019-03-24T07:18:23.849Z,14.87
2019-03-24T07:21:14.125Z,15.77
2019-03-24T07:23:57.174Z,14.93
2019-03-24T07:26:47.648Z,14.00
2019-03-24T07:29:32.337Z,14.18
2019-03-24T07:32:23.220Z,15.08
2019-03-24T07:35:07.746Z,15.45
2019-03-24T07:37:58.659Z,16.77
2019-03-24T07:40:42.074Z,15.98
2019-03-24T07:43:32.991Z,16.55
2019-03-24T07:46:15.913Z,16.87
2019-03-24T07:48:48.011Z,17.60
2019-03-24T07:51:38.877Z,18.45
2019-03-24T07:54:22.739Z,17.48
2019-03-24T07:57:13.638Z,16.97
2019-03-24T08:00:05.190Z,17.62
2019-03-24T08:02:56.069Z,17.98
2019-03-24T08:05:39.309Z,17.45
2019-03-24T08:08:30.163Z,17.27
2019-03-24T08:11:14.082Z,16.75
2019-03-24T08:14:05.052Z,17.40
2019-03-24T08:17:07.902Z,16.30
2019-03-24T08:19:51.889Z,16.37
2019-03-24T08:22:42.836Z,16.73
2019-03-24T08:28:31.568Z,15.43
2019-03-24T08:31:22.463Z,16.00
2019-03-24T08:33:54.688Z,16.23
2019-03-24T08:36:45.555Z,16.50
2019-03-24T08:39:28.464Z,15.55
2019-03-24T08:42:19.340Z,16.40
2019-03-24T08:45:01.618Z,17.73
2019-03-24T08:47:51.855Z,18.03
2019-03-24T08:50:34.129Z,18.57
2019-03-24T08:53:24.416Z,19.53
2019-03-24T08:56:07.344Z,18.80
2019-03-24T08:58:57.671Z,19.17
2019-03-24T09:01:40.616Z,19.43
2019-03-24T09:07:26.918Z,18.77
2019-03-24T09:10:17.215Z,19.50
2019-03-24T09:13:07.506Z,20.33
2019-03-24T09:15:57.867Z,19.83
2019-03-24T09:18:52.751Z,19.70
2019-03-24T09:21:33.092Z,19.97
2019-03-24T09:24:23.377Z,20.83
2019-03-24T09:27:05.751Z,19.30
2019-03-24T09:29:56.030Z,19.17
2019-03-24T09:32:38.767Z,19.40
2019-03-24T09:35:29.148Z,20.90
2019-03-24T09:38:11.736Z,21.43
2019-03-24T09:41:02.213Z,21.27
2019-03-24T09:43:45.164Z,19.70
2019-03-24T09:46:35.464Z,20.87
2019-03-24T09:49:18.412Z,21.63
2019-03-24T09:52:08.692Z,21.00
2019-03-24T09:54:51.198Z,21.93
2019-03-24T09:57:41.521Z,21.83
2019-03-24T10:00:24.299Z,20.47
2019-03-24T10:03:14.582Z,19.57
2019-03-24T10:05:57.179Z,21.23
2019-03-24T10:08:47.606Z,20.30
2019-03-24T10:11:30.068Z,21.20
2019-03-24T10:14:20.362Z,20.60
2019-03-24T10:17:03.042Z,21.20
2019-03-24T10:19:53.371Z,22.27
2019-03-24T10:22:36.217Z,22.30
2019-03-24T10:25:26.518Z,23.10
2019-03-24T10:28:09.767Z,23.53
2019-03-24T10:31:00.072Z,23.77
2019-03-24T10:37:20.612Z,24.83
2019-03-24T10:40:05.711Z,24.50
2019-03-24T10:42:56.656Z,25.37
2019-03-24T10:45:47.590Z,24.75
2019-03-24T10:48:38.795Z,25.35
2019-03-24T10:51:29.768Z,25.48
2019-03-24T10:54:32.235Z,26.00
2019-03-24T10:57:15.969Z,26.27
2019-03-24T11:00:08.439Z,26.07
2019-03-24T11:02:59.316Z,27.17
2019-03-24T11:05:50.254Z,26.40
2019-03-24T11:08:41.551Z,26.82
2019-03-24T11:11:32.455Z,26.85
2019-03-24T11:14:23.423Z,26.70
2019-03-24T11:17:14.347Z,26.90
2019-03-24T11:20:05.799Z,25.23
2019-03-24T11:22:56.799Z,25.37
2019-03-24T11:25:47.702Z,26.02
2019-03-24T11:31:34.698Z,24.23
2019-03-24T11:34:25.801Z,24.07
2019-03-24T11:37:16.731Z,22.30
2019-03-24T11:40:19.392Z,23.32
2019-03-24T11:46:04.748Z,23.95
2019-03-24T11:48:48.800Z,23.10
2019-03-24T11:51:39.721Z,23.60
2019-03-24T11:54:30.682Z,23.42
2019-03-24T11:57:21.608Z,24.25
2019-03-24T12:03:48.278Z,25.45
2019-03-24T12:06:39.146Z,24.47
2019-03-24T12:09:22.776Z,23.67
2019-03-24T12:12:13.616Z,25.48
2019-03-24T12:14:56.664Z,26.27
2019-03-24T12:17:47.494Z,25.08
2019-03-24T12:20:30.351Z,25.32
2019-03-24T12:23:21.197Z,24.55
2019-03-24T12:26:04.746Z,24.47
2019-03-24T12:28:55.598Z,22.90
2019-03-24T12:31:39.249Z,24.63
2019-03-24T12:34:30.133Z,24.10
2019-03-24T12:37:13.438Z,24.75
2019-03-24T12:40:04.735Z,25.12
2019-03-24T12:42:48.549Z,25.00
2019-03-24T12:45:39.432Z,24.45
2019-03-24T12:48:30.339Z,24.05
2019-03-24T12:51:15.716Z,23.77
2019-03-24T12:54:06.578Z,23.87
2019-03-24T12:56:38.667Z,23.10
2019-03-24T12:59:29.748Z,22.70
2019-03-24T13:02:13.545Z,24.02
2019-03-24T13:05:15.054Z,23.38
2019-03-24T13:08:00.032Z,21.30
2019-03-24T13:10:50.920Z,21.93
2019-03-24T13:13:34.302Z,22.27
2019-03-24T13:16:25.200Z,21.40
2019-03-24T13:19:08.728Z,20.95
2019-03-24T13:21:59.640Z,20.92
2019-03-24T13:24:42.774Z,20.77
2019-03-24T13:27:33.656Z,20.35
2019-03-24T13:30:17.058Z,21.62
2019-03-24T13:33:07.962Z,20.43
2019-03-24T13:39:07.769Z,20.20
2019-03-24T13:41:51.292Z,17.40
2019-03-24T13:44:42.238Z,15.98
2019-03-24T13:47:44.995Z,16.17
2019-03-24T13:50:31.738Z,16.15
2019-03-24T13:53:21.347Z,16.15
2019-03-24T13:56:04.654Z,15.48
2019-03-24T13:58:55.518Z,15.28
2019-03-24T14:01:38.610Z,15.13
2019-03-24T14:04:29.503Z,14.90
2019-03-24T14:07:13.215Z,14.70
2019-03-24T14:12:59.415Z,14.55
2019-03-24T14:18:43.919Z,11.15
2019-03-24T14:21:30.604Z,9.23
2019-03-24T14:24:21.519Z,9.30
2019-03-24T14:27:12.368Z,9.68
2019-03-24T14:30:03.253Z,9.35
2019-03-24T14:32:54.117Z,11.03
2019-03-24T14:35:37.025Z,11.43
2019-03-24T14:38:27.948Z,11.60
2019-03-24T14:41:11.400Z,11.53
2019-03-24T14:44:02.244Z,12.25
2019-03-24T14:46:45.938Z,11.35
2019-03-24T14:49:36.837Z,10.72
2019-03-24T14:52:21.459Z,11.85
2019-03-24T14:55:12.353Z,11.22
2019-03-24T14:57:55.823Z,12.18
2019-03-24T15:04:01.155Z,13.15
2019-03-24T15:07:05.263Z,13.08
2019-03-24T15:09:48.812Z,13.08
2019-03-24T15:12:39.728Z,12.50
2019-03-24T15:15:22.881Z,11.22
2019-03-24T15:18:13.737Z,11.97
2019-03-24T15:21:05.219Z,11.85
2019-03-24T15:23:49.365Z,13.80
2019-03-24T15:26:32.352Z,11.75
2019-03-24T15:29:23.199Z,11.68
2019-03-24T15:32:06.441Z,11.48
2019-03-24T15:34:57.309Z,10.28
2019-03-24T15:37:41.063Z,10.48
2019-03-24T15:40:31.993Z,10.60
2019-03-24T15:43:15.061Z,10.03
2019-03-24T15:46:05.942Z,9.33
2019-03-24T15:48:50.119Z,9.45
2019-03-24T15:51:41.554Z,9.45
2019-03-24T15:54:24.650Z,9.40
2019-03-24T15:57:15.545Z,9.10
2019-03-24T15:59:59.509Z,9.88
2019-03-24T16:02:50.377Z,10.50
2019-03-24T16:05:32.876Z,9.90
2019-03-24T16:08:23.739Z,10.00
2019-03-24T16:11:06.794Z,9.57
2019-03-24T16:13:57.098Z,10.28
2019-03-24T16:16:47.371Z,10.70
2019-03-24T16:19:30.144Z,10.33
2019-03-24T16:22:20.518Z,9.40
2019-03-24T16:25:10.939Z,8.77
2019-03-24T16:28:01.252Z,9.00
2019-03-24T16:30:51.564Z,8.67
2019-03-24T16:33:41.913Z,8.43
2019-03-24T16:36:32.169Z,8.60
2019-03-24T16:39:22.480Z,8.87
2019-03-24T16:42:12.846Z,7.93
2019-03-24T16:45:03.263Z,8.30
2019-03-24T16:47:53.634Z,8.40
2019-03-24T16:50:44.059Z,8.27
2019-03-24T16:53:34.392Z,7.67
2019-03-24T16:56:24.719Z,8.47
2019-03-24T16:59:07.397Z,9.20
2019-03-24T17:01:38.872Z,9.40
2019-03-24T17:04:29.152Z,9.23
2019-03-24T17:07:11.584Z,9.93
2019-03-24T17:10:01.992Z,9.27
2019-03-24T17:12:52.374Z,10.60
2019-03-24T17:15:42.672Z,11.40
2019-03-24T17:18:33.174Z,10.73
2019-03-24T17:21:23.530Z,10.97
2019-03-24T17:24:13.883Z,11.63
2019-03-24T17:27:04.508Z,12.30
2019-03-24T17:29:54.892Z,12.50
2019-03-24T17:32:45.248Z,15.33
2019-03-24T17:35:35.605Z,15.33
2019-03-24T17:38:25.881Z,15.53
2019-03-24T17:41:16.196Z,16.07
2019-03-24T17:43:47.670Z,16.90
2019-03-24T17:46:37.935Z,17.27
2019-03-24T17:49:21.042Z,16.97
2019-03-24T17:52:11.410Z,17.20
2019-03-24T17:55:01.799Z,17.13
2019-03-24T17:57:52.075Z,16.60
2019-03-24T18:00:45.277Z,15.80
2019-03-24T18:03:48.341Z,15.60
2019-03-24T18:09:27.510Z,15.27
2019-03-24T18:12:18.146Z,14.63
2019-03-24T18:15:09.025Z,14.10
2019-03-24T18:18:18.213Z,13.80
2019-03-24T18:21:08.505Z,14.40
2019-03-24T18:23:58.851Z,13.83
2019-03-24T18:26:49.144Z,13.50
2019-03-24T18:29:33.213Z,14.03
2019-03-24T18:32:23.505Z,15.33
2019-03-24T18:35:06.738Z,14.33
2019-03-24T18:37:57.031Z,15.07
2019-03-24T18:40:47.283Z,15.33
2019-03-24T18:43:30.231Z,16.73
2019-03-24T18:46:20.608Z,15.57
2019-03-24T18:52:05.215Z,16.90
2019-03-24T18:54:48.471Z,19.23
2019-03-24T18:57:38.818Z,19.40
2019-03-24T19:00:29.158Z,21.30
2019-03-24T19:03:20.461Z,22.57
2019-03-24T19:06:10.812Z,23.67
2019-03-24T19:11:56.428Z,24.33
2019-03-24T19:17:43.335Z,25.67
2019-03-24T19:20:33.623Z,27.13
2019-03-24T19:23:16.269Z,25.87
2019-03-24T19:25:47.792Z,28.37
2019-03-24T19:28:38.084Z,28.70
2019-03-24T19:31:20.801Z,30.30
2019-03-24T19:34:22.461Z,30.93
2019-03-24T19:37:06.894Z,30.43
2019-03-24T19:42:52.636Z,32.23
2019-03-24T19:45:42.975Z,30.63
2019-03-24T19:48:33.373Z,31.27
2019-03-24T19:51:23.759Z,32.27
2019-03-24T19:54:14.173Z,30.80
2019-03-24T19:57:04.530Z,31.57
2019-03-24T19:59:36.041Z,32.13
2019-03-24T20:02:45.123Z,30.17
2019-03-24T20:05:27.541Z,30.53
2019-03-24T20:08:18.164Z,30.97
2019-03-24T20:16:31.845Z,30.73
2019-03-24T20:19:24.687Z,31.97
2019-03-24T20:22:06.744Z,32.33
2019-03-24T20:24:57.245Z,31.90
2019-03-24T20:27:47.643Z,31.23
2019-03-24T20:30:37.987Z,33.77
2019-03-24T20:33:28.362Z,31.23
2019-03-24T20:36:18.764Z,32.63
2019-03-24T20:39:11.058Z,32.63
2019-03-24T20:42:01.464Z,31.67
2019-03-24T20:44:51.841Z,33.30
2019-03-24T20:47:42.206Z,32.00
2019-03-24T20:50:32.484Z,34.50
2019-03-24T20:53:22.840Z,34.37
2019-03-24T20:56:13.118Z,32.77
2019-03-24T20:58:55.944Z,33.03
2019-03-24T21:04:41.440Z,32.90
2019-03-24T21:07:31.716Z,34.53
2019-03-24T21:10:14.487Z,34.27
2019-03-24T21:13:04.744Z,34.17
2019-03-24T21:15:47.335Z,32.57
2019-03-24T21:18:37.642Z,32.83
2019-03-24T21:21:20.220Z,32.93
2019-03-24T21:24:10.477Z,31.97
2019-03-24T21:26:42.042Z,34.33
2019-03-24T21:29:32.290Z,32.77
2019-03-24T21:32:15.406Z,32.93
2019-03-24T21:38:21.722Z,33.60
2019-03-24T21:41:12.087Z,33.83
2019-03-24T21:44:02.467Z,35.17
2019-03-24T21:46:52.762Z,34.83
2019-03-24T21:53:05.641Z,32.20
2019-03-24T21:55:48.027Z,34.17
2019-03-24T21:58:38.330Z,34.97
2019-03-24T22:01:28.631Z,34.30
2019-03-24T22:04:10.943Z,33.30
2019-03-24T22:07:01.249Z,35.00
2019-03-24T22:09:51.718Z,31.97
2019-03-24T22:12:42.061Z,34.00
2019-03-24T22:15:32.578Z,33.00
2019-03-24T22:18:22.889Z,32.43
2019-03-24T22:21:05.513Z,33.33
2019-03-24T22:23:36.947Z,33.10
2019-03-24T22:26:27.227Z,31.93
2019-03-24T22:29:10.355Z,33.67
2019-03-24T22:32:00.655Z,33.37
2019-03-24T22:34:43.292Z,32.57
2019-03-24T22:37:52.331Z,31.60
2019-03-24T22:40:34.896Z,34.20
2019-03-24T22:43:43.977Z,33.20
2019-03-24T22:46:26.843Z,31.13
2019-03-24T22:49:17.192Z,33.07
2019-03-24T22:52:07.875Z,32.90
2019-03-24T22:54:52.057Z,31.13
2019-03-24T22:58:01.184Z,31.63
2019-03-24T23:01:03.125Z,32.07
2019-03-24T23:03:46.272Z,31.53
2019-03-24T23:06:36.591Z,32.23
2019-03-24T23:09:18.913Z,34.67
2019-03-24T23:12:09.189Z,32.93
2019-03-24T23:14:52.315Z,33.43
2019-03-24T23:17:42.732Z,32.13
2019-03-24T23:20:25.429Z,33.63
2019-03-24T23:23:15.761Z,31.03
2019-03-24T23:25:58.464Z,30.33
2019-03-24T23:28:30.007Z,31.20
2019-03-24T23:31:20.293Z,30.17
2019-03-24T23:34:03.279Z,30.43
2019-03-24T23:36:53.621Z,29.67
2019-03-24T23:42:37.470Z,31.63
2019-03-24T23:48:31.534Z,30.57
2019-03-24T23:51:15.016Z,32.17
2019-03-24T23:54:05.312Z,31.10
2019-03-24T23:56:48.135Z,31.67
2019-03-24T23:59:39.434Z,30.53
